AirNav   Air Wisconsin pilot careers
 
 981 users online  

09A Butler-Choctaw County Airport
Butler, Alabama, USA


FAA INFORMATION EFFECTIVE 04 JANUARY 2018

Location

FAA Identifier: 09A
Lat/Long: 32-07-09.5000N / 088-07-38.9000W
32-07.158333N / 088-07.648333W
32.1193056 / -88.1274722
(estimated)
Elevation: 133.7 ft. / 40.8 m (surveyed)
Variation: 03W (2020)
From city: 5 miles NE of BUTLER, AL
Time zone: UTC -6 (UTC -5 during Daylight Saving Time)
Zip code: 36904

Airport Operations

Airport use: Open to the public
Activation date: 04/1969
Control tower: no
ARTCC: MEMPHIS CENTER
FSS: ANNISTON FLIGHT SERVICE STATION
NOTAMs facility: ANB (NOTAM-D service available)
Attendance: UNATNDD
Wind indicator: lighted
Segmented circle: yes
Lights: ACTVT MIRL RY 12/30 & PAPI RY 30 - CTAF.
Beacon: white-green (lighted land airport)
Operates sunset to sunrise.

Airport Communications

CTAF/UNICOM: 122.8
MERIDIAN APPROACH: 119.2
MERIDIAN DEPARTURE: 119.2
  • APCH/DEP SVC PRVDD BY ATLANTA ARTCC ON FREQS 120.55/270.25 (MONTGOMERY RCAG) WHEN MERIDIAN APCH CTL CLSD.

Nearby radio navigation aids

VOR radial/distance  VOR name  Freq  Var
EWAr127/22.4KEWANEE VORTAC113.8004E
MEIr109/37.7MERIDIAN VORTAC117.0005E

Airport Services

Parking: tiedowns
Airframe service: NONE
Powerplant service: NONE
Bottled oxygen: NONE
Bulk oxygen: NONE

Runway Information

Runway 12/30

Dimensions: 4082 x 80 ft. / 1244 x 24 m
Surface: asphalt, in fair condition
Weight bearing capacity: 
Single wheel: 15.0
Runway edge lights: medium intensity
RUNWAY 12  RUNWAY 30
Latitude: 32-07.304368N32-07.012883N
Longitude: 088-08.004210W088-07.291267W
Elevation: 116.3 ft.133.7 ft.
Gradient: 0.5%0.5%
Traffic pattern: leftleft
Runway heading: 119 magnetic, 116 true299 magnetic, 296 true
Displaced threshold: 169 ft.444 ft.
Markings: nonprecision, in good conditionnonprecision, in good condition
Visual slope indicator: 2-light PAPI on left (3.00 degrees glide path)
PAPI UNUSBL BYD 8 DEGS LEFT OF CNTRLN.
2-light PAPI on left (3.00 degrees glide path)
PAPI RY 30 OTS INDEFLY.
Touchdown point: yes, no lightsyes, no lights
Obstructions: 41 ft. trees, 335 ft. from runway, 107 ft. left of centerline, 3:1 slope to clear
RWY 12 APCH SLOPE 12:1 TO DSPLCD THR.
42 ft. trees, 880 ft. from runway, 61 ft. left of centerline, 16:1 slope to clear

Airport Ownership and Management from official FAA records

Ownership: Publicly-owned
Owner: CHOCTAW COUNTY
117 SOUTH MULBERRY/SUITE 9
BUTLER, AL 36904
Phone 205-459-2417
Manager: TYLER DAVIDSON
117 SOUTH MULBERRY, SUITE 12
BUTLER, AL 36904
Phone (205) 459-2153

Airport Operational Statistics

Aircraft operations: avg 37/week *
81% transient general aviation
19% local general aviation
* for 12-month period ending 25 September 2014

Instrument Procedures

NOTE: All procedures below are presented as PDF files. If you need a reader for these files, you should download the free Adobe Reader.

NOT FOR NAVIGATION. Please procure official charts for flight.
FAA instrument procedures published for use between 4 January 2018 at 0901Z and 1 February 2018 at 0900Z.

 
IAPs - Instrument Approach Procedures
RNAV (GPS) RWY 12   download (202KB)
RNAV (GPS) RWY 30   download (220KB)
NOTE: Special Take-Off Minimums/Departure Procedures apply   download (291KB)

Other nearby airports with instrument procedures:

KDYA - Demopolis Regional Airport (22 nm NE)
KNMM - Meridian Naval Air Station (Mc Cain Field) (34 nm NW)
KMEI - Key Field Airport (34 nm W)
5R1 - Roy Wilcox Airport (40 nm S)
4R3 - Jackson Municipal Airport (41 nm S)
 
Loc | Ops | Rwys | IFR | FBO | Links
Com | Nav | Svcs | Stats | Notes


 
Area around 09A (Butler-Choctaw County Airport)
 
Road maps at: MapQuest Bing Google
 
Aerial photo
WARNING: Photo may not be current or correct
Aerial photo of 09A (Butler-Choctaw County Airport)
Photo taken 07-Feb-2008

Do you have a better or more recent aerial photo of Butler-Choctaw County Airport that you would like to share? If so, please send us your photo.

 
Sectional chart

 
Airport distance calculator
Flying to Butler-Choctaw County Airport? Find the distance to fly.

From to 09A

Sunrise and sunset
Times for 21-Jan-2018
 Local
(UTC-6)
 Zulu
(UTC)
Morning civil twilight06:2712:27
Sunrise06:5312:53
Sunset17:1523:15
Evening civil twilight17:4123:41

Current date and time
Zulu (UTC)  22-Jan-2018 00:37:48
Local (UTC-6)  21-Jan-2018 18:37:48
 
METAR
KDYA 
22nm NE 
220015Z AUTO 11003KT 10SM 14/07 A3009 RMK AO2 T01380067
KNMM 
33nm NW 
212356Z 15003KT 10SM BKN250 19/08 A3009 RMK AO2 SLP199 T01890083 10233 20189 51002
KMEI 
34nm W 
212358Z 00000KT 10SM CLR 16/09 A3009 RMK AO2 SLP188 T01610089 10239 20161 51004
KA08 
44nm NE 
220015Z AUTO 19005KT 10SM CLR 16/08 A3011 RMK AO2 T01620075
TAF
KNMM 
33nm NW 
2123/2223 15005KT 9999 BKN250 QNH3004INS BECMG 2210/2212 17010KT 9999 VCSH BKN025 OVC050 QNH3003INS TEMPO 2212/2218 08013G18KT 4800 SHRA OVC010 QNH2997INS AUTOMATED SENSOR METWATCH 2123 TIL 2211 T13/2209Z T21/2222Z FN00162
KMEI 
34nm W 
211720Z 2118/2218 16010KT P6SM SCT100 FM220900 18012KT P6SM OVC020 FM221200 17012KT P6SM OVC015 FM221400 19013G18KT P6SM OVC007 FM221600 20015G18KT P6SM OVC015
NOTAMs
Click for the latest NOTAMs
NOTAMs are issued by the DoD/FAA and will open in a separate window not controlled by AirNav.

 

 
 

Would you like to see your business listed on this page?

 If your business provides an interesting product or service to pilots, flight crews, aircraft, or users of the Butler-Choctaw County Airport, you should consider listing it here.  To start the listing process, click on the button below
 
Add a business
 

Other Pages about Butler-Choctaw County Airport

Update a link
 
Copyright © AirNav, LLC. All rights reserved. Privacy Policy  Contact